• Join FlightAware (Why Join?)
  • Login
  • US Flag 
10:22PM EDT


 

Airport Tracker/Info


-or-


 

Live Flight TrackerFlight Track Log ✈ SWA385 ✈ 17-Jul-2013 ✈ KSMF - KSNA

Flight Track Log - Related Links

Times and Time Zones

All times are in EDT time to prevent confusion due to time zone crossing. See the SWA385 flight status page for this flight to view local times or setup timezone preferences in your user account.

Time Position Orientation Groundspeed Altitude Reporting Facility
EDT Latitude Longitude Course Direction KTS MPH feet Rate Location/Type
12:47AM 38.6308 -121.5158 122° Southeast 219 252 4,800  Level Oakland Center
12:48AM 38.5931 -121.4378 122° Southeast 262 302 8,400 3,480 Climbing Oakland Center
12:49AM 38.5508 -121.3483 121° Southeast 288 331 11,900 3,480 Climbing Oakland Center
12:50AM 38.4981 -121.2414 122° Southeast 350 403 15,500 3,660 Climbing Oakland Center
12:51AM 38.4378 -121.1133 121° Southeast 365 420 19,400 4,140 Climbing Oakland Center
12:52AM 38.3525 -121.0431 147° Southeast 358 412 24,000 3,480 Climbing Oakland Center
12:53AM 38.2633 -120.9872 154° Southeast 355 409 26,600 2,160 Climbing Oakland Center
12:54AM 38.1633 -120.9256 154° Southeast 396 456 28,500 2,400 Climbing Oakland Center
12:55AM 38.0614 -120.8617 154° Southeast 406 467 31,600 2,940 Climbing Oakland Center
12:56AM 37.9617 -120.8000 154° Southeast 400 460 34,500 2,220 Climbing Oakland Center
12:57AM 37.8603 -120.7372 154° Southeast 405 466 36,200 1,200 Climbing Oakland Center
12:58AM 37.7581 -120.6756 154° Southeast 406 467 37,000 360 Climbing Oakland Center
12:59AM 37.6569 -120.6125 154° Southeast 407 468 37,000  Level Oakland Center
01:00AM 37.5567 -120.5511 154° Southeast 402 463 37,000  Level Oakland Center
01:01AM 37.4372 -120.4778 154° Southeast 398 458 37,000  Level Oakland Center
01:02AM 37.3361 -120.4167 154° Southeast 400 460 37,000  Level Oakland Center
01:03AM 37.2353 -120.3575 155° Southeast 400 460 37,000 -120 Level Oakland Center
01:04AM 37.1342 -120.2964 154° Southeast 402 463 36,800 -600 Descending Oakland Center
01:05AM 37.0281 -120.2567 163° South 396 456 35,800 -900 Descending Oakland Center
01:06AM 36.9200 -120.2203 165° South 401 461 35,000 -420 Descending Oakland Center
01:07AM 36.8144 -120.1811 163° South 397 457 35,000  Level Oakland Center
01:08AM 36.7106 -120.1472 165° South 395 455 35,000  Level Oakland Center
01:09AM 36.6031 -120.1103 165° South 398 458 35,000  Level Oakland Center
01:10AM 36.4967 -120.0719 164° South 398 458 35,000  Level Oakland Center
01:11AM 36.3906 -120.0344 164° South 396 456 35,000  Level Oakland Center
01:12AM 36.2847 -119.9986 165° South 393 452 35,000  Level Oakland Center
01:13AM 36.1578 -119.9528 164° South 395 455 35,000  Level Oakland Center
01:14AM 36.0500 -119.9147 164° South 398 458 35,000  Level Oakland Center
01:15AM 35.9414 -119.8764 164° South 403 464 35,000  Level Oakland Center
01:16AM 35.8331 -119.8389 164° South 402 463 35,000  Level Oakland Center
01:17AM 35.7244 -119.8008 164° South 401 461 35,000  Level Oakland Center
01:18AM 35.6142 -119.7636 165° South 405 466 35,000  Level Oakland Center
01:19AM 35.5058 -119.7261 164° South 402 463 35,000  Level Oakland Center
01:20AM 35.3967 -119.6889 164° South 404 465 35,000  Level Oakland Center
01:21AM 35.2889 -119.6519 164° South 400 460 35,000  Level Oakland Center
01:23AM 35.1908 -119.5844 151° Southeast 401 461 35,000  Level Oakland Center
01:24AM 35.0972 -119.5067 146° Southeast 405 466 35,000  Level Oakland Center
01:25AM 35.0050 -119.4269 145° Southeast 405 466 35,000  Level Oakland Center
01:26AM 34.9122 -119.3472 145° Southeast 405 466 35,000  Level Oakland Center
01:27AM 34.8208 -119.2694 145° Southeast 403 464 35,000 -840 Level Oakland Center
01:28AM 34.7292 -119.1919 145° Southeast 400 460 33,400 -2,220 Descending Oakland Center
01:29AM 34.5867 -119.0750 146° Southeast 394 453 29,600 -2,460 Descending Los Angeles Center
01:30AM 34.4978 -119.0014 146° Southeast 387 445 27,500 -2,100 Descending Los Angeles Center
01:31AM 34.4136 -118.9300 145° Southeast 375 432 25,400 -2,040 Descending Los Angeles Center
01:32AM 34.3261 -118.8683 150° Southeast 364 419 23,400 -1,980 Descending Los Angeles Center
01:33AM 34.2325 -118.8358 164° South 351 404 21,400 -1,980 Descending Los Angeles Center
01:34AM 34.1422 -118.8028 163° South 342 394 19,400 -2,040 Descending Los Angeles Center
01:35AM 34.0422 -118.7656 163° South 337 388 17,300 -2,040 Descending Los Angeles Center
01:36AM 33.9558 -118.7339 163° South 328 377 15,300 -1,620 Descending Los Angeles Center
01:37AM 33.8694 -118.7028 163° South 324 373 14,100 -1,200 Descending Los Angeles Center
01:38AM 33.7761 -118.6692 163° South 328 377 12,900 -1,440 Descending Los Angeles Center
01:39AM 33.6911 -118.6394 164° South 322 371 11,200 -1,620 Descending Los Angeles Center
01:40AM 33.6108 -118.6106 163° South 308 354 9,700 -1,560 Descending Los Angeles Center
01:41AM 33.5425 -118.5614 149° Southeast 292 336 8,100 -1,620 Descending Los Angeles Center
01:42AM 33.5317 -118.4750 99° East 295 339 6,500 -1,380 Descending Los Angeles Center
01:43AM 33.5481 -118.3847 78° East 284 327 5,300 -780 Descending Los Angeles Center
01:44AM 33.5628 -118.2958 79° East 279 321 5,000 -180 Descending Los Angeles Center
01:45AM 33.5817 -118.1925 78° East 273 314 5,000  Level Los Angeles Center
01:46AM 33.5950 -118.1208 77° East 236 272 5,000  Level Los Angeles Center
01:47AM 33.6333 -118.0833 39° Northeast 224 258 5,100 -480 Climbing Southern California TRACON
01:48AM 33.6833 -118.0333 40° Northeast 234 269 4,200 -840 Descending Southern California TRACON
01:49AM 33.7167 -118.0000 40° Northeast 178 205 3,500 -840 Descending Southern California TRACON
01:50AM 33.7333 -117.9500 68° East 153 176 2,600 -900 Descending Southern California TRACON
01:51AM 33.7500 -117.9000 68° East 142 163 1,900 -600 Descending Southern California TRACON
01:52AM 33.7333 -117.8667 121° Southeast 130 150 1,500 -600 Descending Southern California TRACON
01:53AM 33.7167 -117.8500 140° Southeast 132 152 800 -720 Descending Southern California TRACON
01:56AM 33.6757 -117.8682 North  Level Estimated
02:03AM 33.6757 -117.8682 North  Level Estimated